Category: путешествия

Category was added automatically. Read all entries about "путешествия".

proper attire

и о погоде

KIAD 201152Z 29008KT 10SM CLR M17/M25 A3036 RMK AO2 SLP286 T11721250 11150 21172 53023

Для кто летать не может — это -17℃. Минус факинг семнадцать градусов по Андерсу факинг Цельсию. На широте факинг Душанбе. Хана бамбуку и колибри. Грифы–индюки из недавнего поста локти, небось, себе кусают, что в Долину Смерти вовремя на свалили.
blah blah blah

public announcement, пилоцкое

А знаете ли вы, что VOR совершенно не обязательно по (магнитному) компасу может быть выровнен? И когда он от компаса вбок на 4-5°, интересные эффекты получаются…